createdAt,value
2023-05-17T00:01:49.895Z,75.40
2023-05-17T00:04:17.952Z,75.20
2023-05-17T00:06:46.304Z,75.40
2023-05-17T00:09:14.186Z,75.50
2023-05-17T00:11:42.137Z,75.40
2023-05-17T00:14:10.462Z,75.60
2023-05-17T00:16:38.440Z,75.70
2023-05-17T00:19:09.532Z,75.70
2023-05-17T00:21:37.996Z,75.80
2023-05-17T00:24:06.618Z,75.80
2023-05-17T00:26:34.722Z,75.90
2023-05-17T00:29:02.617Z,75.90
2023-05-17T00:31:30.573Z,76.00
2023-05-17T00:33:58.416Z,76.80
2023-05-17T00:36:27.677Z,76.30
2023-05-17T00:38:55.567Z,76.80
2023-05-17T00:41:23.400Z,76.80
2023-05-17T00:43:51.824Z,77.60
2023-05-17T00:46:19.694Z,76.70
2023-05-17T00:48:48.987Z,76.80
2023-05-17T00:51:20.170Z,76.80
2023-05-17T00:53:50.118Z,76.90
2023-05-17T00:56:18.380Z,77.00
2023-05-17T00:58:46.485Z,76.90
2023-05-17T01:01:14.481Z,76.90
2023-05-17T01:03:43.140Z,77.00
2023-05-17T01:06:11.739Z,76.90
2023-05-17T01:08:39.673Z,77.30
2023-05-17T01:11:19.759Z,77.50
2023-05-17T01:13:56.437Z,78.10
2023-05-17T01:16:30.934Z,78.30
2023-05-17T01:19:08.841Z,78.30
2023-05-17T01:21:48.936Z,78.60
2023-05-17T01:24:27.062Z,79.00
2023-05-17T01:26:57.672Z,78.90
2023-05-17T01:29:27.961Z,78.90
2023-05-17T01:31:57.339Z,79.00
2023-05-17T01:34:28.580Z,79.30
2023-05-17T01:36:57.546Z,79.80
2023-05-17T01:39:25.821Z,79.80
2023-05-17T01:42:02.200Z,80.20
2023-05-17T01:44:38.857Z,80.50
2023-05-17T01:47:14.342Z,80.70
2023-05-17T01:49:47.878Z,80.80
2023-05-17T01:52:23.615Z,80.90
2023-05-17T01:54:55.804Z,81.20
2023-05-17T01:57:30.836Z,81.20
2023-05-17T02:00:02.887Z,81.40
2023-05-17T02:02:31.558Z,81.40
2023-05-17T02:04:59.546Z,81.30
2023-05-17T02:07:27.471Z,81.30
2023-05-17T02:09:55.303Z,81.40
2023-05-17T02:12:25.341Z,81.40
2023-05-17T02:14:53.160Z,81.60
2023-05-17T02:17:21.033Z,81.60
2023-05-17T02:19:48.958Z,81.70
2023-05-17T02:22:16.828Z,81.60
2023-05-17T02:24:45.071Z,81.60
2023-05-17T02:27:13.222Z,81.80
2023-05-17T02:29:42.725Z,81.70
2023-05-17T02:32:11.061Z,82.00
2023-05-17T02:34:39.071Z,81.90
2023-05-17T02:37:06.916Z,81.90
2023-05-17T02:39:34.913Z,82.20
2023-05-17T02:42:02.800Z,82.20
2023-05-17T02:44:30.608Z,82.10
2023-05-17T02:46:59.867Z,81.90
2023-05-17T02:49:27.782Z,82.10
2023-05-17T02:51:56.064Z,82.20
2023-05-17T02:54:23.966Z,82.20
2023-05-17T02:56:51.905Z,82.40
2023-05-17T02:59:19.831Z,82.30
2023-05-17T03:01:48.824Z,82.50
2023-05-17T03:04:20.220Z,82.40
2023-05-17T03:06:48.500Z,82.60
2023-05-17T03:09:16.399Z,82.50
2023-05-17T03:11:44.239Z,82.50
2023-05-17T03:14:12.160Z,82.70
2023-05-17T03:16:40.050Z,82.80
2023-05-17T03:19:08.128Z,83.00
2023-05-17T03:21:37.454Z,83.20
2023-05-17T03:24:05.711Z,83.50
2023-05-17T03:26:33.553Z,83.40
2023-05-17T03:29:01.491Z,83.50
2023-05-17T03:31:29.567Z,83.40
2023-05-17T03:33:57.466Z,83.40
2023-05-17T03:36:25.446Z,83.30
2023-05-17T03:38:54.631Z,83.60
2023-05-17T03:41:22.483Z,83.00
2023-05-17T03:43:50.647Z,82.90
2023-05-17T03:46:18.518Z,82.60
2023-05-17T03:48:46.387Z,82.70
2023-05-17T03:51:14.453Z,82.80
2023-05-17T03:53:43.539Z,82.40
2023-05-17T03:56:13.108Z,82.50
2023-05-17T03:58:40.940Z,82.50
2023-05-17T04:01:08.762Z,82.20
2023-05-17T04:03:37.430Z,82.40
2023-05-17T04:06:07.239Z,82.10
2023-05-17T04:08:35.721Z,82.10
2023-05-17T04:11:10.788Z,81.80
2023-05-17T04:13:40.620Z,81.90
2023-05-17T04:16:09.122Z,82.10
2023-05-17T04:18:38.468Z,82.00
2023-05-17T04:21:07.157Z,82.00
2023-05-17T04:23:35.863Z,81.90
2023-05-17T04:26:04.663Z,82.00
2023-05-17T04:28:34.796Z,81.90
2023-05-17T04:31:08.109Z,81.90
2023-05-17T04:33:36.620Z,82.10
2023-05-17T04:36:05.018Z,82.00
2023-05-17T04:38:32.861Z,81.90
2023-05-17T04:41:04.500Z,82.00
2023-05-17T04:43:32.901Z,82.20
2023-05-17T04:46:01.702Z,82.10
2023-05-17T04:48:32.769Z,82.20
2023-05-17T04:51:04.002Z,82.50
2023-05-17T04:53:32.392Z,82.30
2023-05-17T04:56:00.494Z,82.30
2023-05-17T04:58:28.334Z,82.40
2023-05-17T05:00:56.223Z,82.40
2023-05-17T05:03:24.434Z,82.20
2023-05-17T05:05:53.705Z,82.50
2023-05-17T05:08:21.603Z,82.50
2023-05-17T05:10:51.336Z,82.40
2023-05-17T05:13:19.195Z,82.10
2023-05-17T05:15:47.128Z,82.30
2023-05-17T05:18:15.397Z,82.00
2023-05-17T05:20:45.622Z,82.90
2023-05-17T05:23:14.870Z,82.00
2023-05-17T05:25:44.370Z,81.90
2023-05-17T05:28:12.742Z,82.00
2023-05-17T05:30:41.007Z,81.60
2023-05-17T05:33:09.073Z,81.70
2023-05-17T05:35:37.069Z,81.70
2023-05-17T05:38:05.236Z,81.60
2023-05-17T05:40:34.512Z,81.60
2023-05-17T05:43:02.548Z,81.50
2023-05-17T05:45:30.378Z,81.40
2023-05-17T05:47:58.337Z,81.40
2023-05-17T05:50:26.300Z,81.10
2023-05-17T05:53:00.152Z,81.00
2023-05-17T05:55:36.364Z,80.70
2023-05-17T05:58:04.183Z,80.50
2023-05-17T06:00:32.232Z,80.30
2023-05-17T06:03:00.308Z,80.10
2023-05-17T06:05:29.423Z,80.00
2023-05-17T06:07:57.452Z,79.70
2023-05-17T06:10:25.777Z,79.50
2023-05-17T06:12:55.058Z,79.10
2023-05-17T06:15:22.926Z,78.90
2023-05-17T06:17:52.446Z,78.90
2023-05-17T06:20:20.577Z,78.70
2023-05-17T06:22:48.757Z,78.80
2023-05-17T06:25:16.661Z,78.60
2023-05-17T06:27:44.737Z,78.40
2023-05-17T06:30:15.125Z,77.80
2023-05-17T06:32:43.434Z,77.70
2023-05-17T06:35:12.103Z,77.70
2023-05-17T06:37:39.964Z,77.60
2023-05-17T06:40:16.635Z,77.40
2023-05-17T06:42:45.012Z,76.70
2023-05-17T06:45:14.620Z,76.00
2023-05-17T06:47:43.627Z,75.50
2023-05-17T06:50:11.915Z,75.30
2023-05-17T06:52:39.917Z,75.00
2023-05-17T06:55:09.238Z,74.40
2023-05-17T06:57:37.945Z,72.20
2023-05-17T07:00:10.951Z,71.60
2023-05-17T07:02:40.391Z,70.70
2023-05-17T07:05:09.012Z,69.60
2023-05-17T07:07:37.095Z,69.50
2023-05-17T07:10:05.737Z,69.40
2023-05-17T07:12:34.765Z,69.10
2023-05-17T07:15:03.030Z,69.50
2023-05-17T07:17:30.873Z,69.70
2023-05-17T07:20:00.295Z,69.90
2023-05-17T07:22:28.256Z,68.70
2023-05-17T07:24:56.176Z,69.40
2023-05-17T07:27:24.028Z,69.10
2023-05-17T07:29:51.944Z,68.70
2023-05-17T07:32:19.758Z,67.80
2023-05-17T07:34:47.888Z,68.00
2023-05-17T07:37:17.218Z,67.80
2023-05-17T07:39:45.291Z,67.30
2023-05-17T07:42:13.344Z,67.60
2023-05-17T07:44:41.240Z,66.80
2023-05-17T07:47:09.166Z,66.30
2023-05-17T07:49:38.477Z,66.40
2023-05-17T07:52:06.861Z,66.70
2023-05-17T07:54:36.529Z,65.70
2023-05-17T07:57:04.727Z,65.00
2023-05-17T07:59:32.599Z,64.40
2023-05-17T08:02:00.556Z,63.40
2023-05-17T08:04:28.483Z,62.20
2023-05-17T08:06:56.439Z,62.60
2023-05-17T08:09:24.360Z,61.90
2023-05-17T08:11:53.625Z,62.20
2023-05-17T08:14:27.011Z,61.50
2023-05-17T08:16:55.010Z,60.40
2023-05-17T08:19:23.053Z,61.00
2023-05-17T08:21:51.639Z,61.30
2023-05-17T08:24:19.682Z,60.30
2023-05-17T08:26:47.949Z,61.30
2023-05-17T08:29:17.150Z,61.70
2023-05-17T08:31:45.636Z,60.40
2023-05-17T08:34:13.684Z,60.20
2023-05-17T08:36:42.456Z,59.20
2023-05-17T08:39:10.629Z,60.00
2023-05-17T08:41:38.701Z,60.40
2023-05-17T08:44:07.148Z,59.50
2023-05-17T08:46:38.499Z,59.70
2023-05-17T08:49:08.176Z,58.90
2023-05-17T08:51:39.468Z,59.20
2023-05-17T08:54:08.325Z,57.70
2023-05-17T08:56:40.199Z,57.10
2023-05-17T08:59:10.656Z,56.70
2023-05-17T09:01:42.223Z,56.80
2023-05-17T09:04:10.723Z,55.20
2023-05-17T09:06:38.801Z,55.20
2023-05-17T09:09:11.753Z,55.80
2023-05-17T09:11:39.838Z,55.50
2023-05-17T09:14:08.304Z,55.30
2023-05-17T09:16:43.592Z,54.80
2023-05-17T09:19:18.032Z,55.50
2023-05-17T09:21:49.278Z,54.80
2023-05-17T09:24:20.450Z,53.80
2023-05-17T09:26:48.868Z,54.40
2023-05-17T09:29:18.017Z,54.90
2023-05-17T09:31:47.620Z,55.60
2023-05-17T09:34:19.861Z,54.90
2023-05-17T09:36:48.982Z,54.20
2023-05-17T09:39:17.278Z,54.90
2023-05-17T09:41:48.371Z,54.80
2023-05-17T09:44:17.284Z,54.30
2023-05-17T09:46:49.595Z,53.80
2023-05-17T09:49:18.863Z,53.40
2023-05-17T09:51:48.814Z,53.40
2023-05-17T09:54:17.620Z,52.30
2023-05-17T09:56:46.835Z,53.00
2023-05-17T09:59:16.136Z,51.60
2023-05-17T10:01:46.141Z,51.60
2023-05-17T10:04:20.597Z,51.20
2023-05-17T10:06:52.391Z,52.00
2023-05-17T10:09:25.472Z,51.10
2023-05-17T10:11:56.424Z,50.90
2023-05-17T10:14:28.342Z,51.20
2023-05-17T10:16:57.091Z,51.50
2023-05-17T10:19:26.861Z,52.10
2023-05-17T10:21:58.706Z,50.80
2023-05-17T10:24:32.369Z,50.90
2023-05-17T10:27:01.103Z,51.10
2023-05-17T10:29:31.381Z,50.10
2023-05-17T10:31:59.972Z,50.00
2023-05-17T10:34:30.916Z,49.20
2023-05-17T10:37:00.392Z,48.70
2023-05-17T10:39:29.151Z,49.10
2023-05-17T10:42:13.769Z,49.60
2023-05-17T10:44:43.664Z,49.40
2023-05-17T10:47:12.685Z,49.40
2023-05-17T10:49:47.986Z,48.70
2023-05-17T10:52:19.383Z,48.20
2023-05-17T10:54:50.927Z,48.30
2023-05-17T10:57:21.419Z,48.10
2023-05-17T11:00:00.387Z,48.80
2023-05-17T11:02:29.242Z,47.90
2023-05-17T11:05:00.337Z,47.90
2023-05-17T11:07:32.055Z,46.70
2023-05-17T11:10:12.111Z,47.10
2023-05-17T11:12:42.112Z,47.00
2023-05-17T11:15:11.776Z,45.60
2023-05-17T11:17:57.021Z,45.30
2023-05-17T11:20:34.948Z,44.70
2023-05-17T11:23:06.048Z,46.30
2023-05-17T11:25:36.163Z,46.30
2023-05-17T11:28:08.913Z,46.80
2023-05-17T11:30:43.338Z,46.40
2023-05-17T11:33:24.853Z,47.00
2023-05-17T11:36:04.760Z,47.40
2023-05-17T11:38:33.066Z,47.40
2023-05-17T11:41:26.475Z,45.90
2023-05-17T11:43:55.313Z,44.90
2023-05-17T11:46:24.751Z,46.00
2023-05-17T11:48:53.798Z,45.70
2023-05-17T11:51:25.150Z,45.90
2023-05-17T11:53:56.066Z,46.30
2023-05-17T11:56:35.647Z,45.60
2023-05-17T11:59:10.686Z,45.30
2023-05-17T12:01:46.342Z,44.20
2023-05-17T12:04:14.597Z,44.10
2023-05-17T12:06:45.887Z,44.80
2023-05-17T12:09:17.724Z,44.20
2023-05-17T12:11:46.220Z,44.70
2023-05-17T12:14:17.284Z,44.30
2023-05-17T12:16:46.281Z,44.00
2023-05-17T12:19:21.196Z,44.60
2023-05-17T12:21:51.193Z,43.90
2023-05-17T12:24:19.605Z,44.40
2023-05-17T12:26:48.872Z,44.70
2023-05-17T12:29:22.740Z,44.40
2023-05-17T12:31:53.142Z,42.80
2023-05-17T12:34:21.213Z,43.60
2023-05-17T12:36:52.676Z,43.60
2023-05-17T12:39:23.809Z,43.10
2023-05-17T12:41:52.570Z,43.10
2023-05-17T12:44:21.334Z,42.90
2023-05-17T12:46:53.684Z,42.50
2023-05-17T12:49:22.508Z,42.80
2023-05-17T12:51:51.996Z,43.10
2023-05-17T12:54:29.910Z,41.80
2023-05-17T12:56:58.110Z,41.10
2023-05-17T12:59:26.483Z,42.80
2023-05-17T13:01:56.989Z,42.00
2023-05-17T13:04:31.864Z,42.70
2023-05-17T13:07:02.930Z,42.00
2023-05-17T13:09:32.400Z,42.00
2023-05-17T13:12:01.872Z,42.30
2023-05-17T13:14:37.508Z,41.90
2023-05-17T13:17:06.862Z,41.70
2023-05-17T13:19:35.920Z,41.00
2023-05-17T13:22:05.845Z,41.30
2023-05-17T13:24:35.795Z,41.00
2023-05-17T13:27:04.696Z,41.70
2023-05-17T13:29:39.680Z,41.30
2023-05-17T13:32:09.144Z,41.60
2023-05-17T13:34:37.310Z,42.10
2023-05-17T13:37:11.184Z,41.70
2023-05-17T13:39:40.345Z,41.20
2023-05-17T13:42:08.326Z,41.00
2023-05-17T13:44:36.211Z,41.00
2023-05-17T13:47:04.180Z,41.20
2023-05-17T13:49:32.067Z,41.00
2023-05-17T13:52:00.583Z,40.30
2023-05-17T13:54:29.861Z,40.80
2023-05-17T13:56:57.824Z,40.80
2023-05-17T13:59:26.177Z,41.30
2023-05-17T14:01:54.107Z,41.00
2023-05-17T14:04:22.580Z,41.90
2023-05-17T14:06:54.093Z,40.20
2023-05-17T14:09:22.971Z,40.30
2023-05-17T14:11:52.334Z,40.60
2023-05-17T14:14:20.727Z,39.70
2023-05-17T14:16:48.958Z,39.70
2023-05-17T14:19:17.227Z,39.50
2023-05-17T14:21:45.415Z,39.70
2023-05-17T14:24:13.403Z,38.80
2023-05-17T14:26:41.812Z,39.60
2023-05-17T14:29:10.993Z,39.70
2023-05-17T14:31:38.879Z,38.70
2023-05-17T14:34:07.029Z,39.30
2023-05-17T14:36:36.402Z,39.10
2023-05-17T14:39:05.417Z,38.30
2023-05-17T14:41:33.341Z,38.40
2023-05-17T14:44:01.309Z,37.00
2023-05-17T14:46:30.601Z,37.50
2023-05-17T14:48:58.583Z,37.60
2023-05-17T14:51:26.914Z,38.80
2023-05-17T14:53:54.775Z,38.80
2023-05-17T14:56:22.793Z,38.90
2023-05-17T14:58:51.131Z,38.70
2023-05-17T15:01:19.465Z,38.70
2023-05-17T15:03:49.121Z,38.40
2023-05-17T15:06:17.237Z,38.80
2023-05-17T15:08:45.109Z,40.20
2023-05-17T15:11:13.747Z,37.40
2023-05-17T15:13:41.724Z,37.40
2023-05-17T15:16:09.853Z,37.30
2023-05-17T15:18:38.098Z,37.10
2023-05-17T15:21:07.481Z,36.30
2023-05-17T15:23:35.289Z,36.00
2023-05-17T15:26:03.361Z,36.00
2023-05-17T15:28:31.195Z,36.10
2023-05-17T15:31:03.003Z,36.90
2023-05-17T15:33:32.157Z,36.20
2023-05-17T15:36:00.185Z,36.80
2023-05-17T15:38:29.373Z,36.30
2023-05-17T15:41:03.796Z,36.20
2023-05-17T15:43:32.609Z,35.80
2023-05-17T15:46:00.756Z,35.70
2023-05-17T15:48:29.223Z,35.60
2023-05-17T15:50:57.546Z,35.50
2023-05-17T15:53:25.865Z,35.50
2023-05-17T15:55:55.315Z,35.50
2023-05-17T15:58:24.904Z,35.20
2023-05-17T16:00:52.802Z,34.70
2023-05-17T16:03:20.854Z,34.70
2023-05-17T16:05:48.949Z,34.40
2023-05-17T16:08:17.269Z,33.70
2023-05-17T16:10:46.001Z,34.00
2023-05-17T16:13:15.313Z,34.00
2023-05-17T16:15:43.258Z,33.60
2023-05-17T16:18:13.651Z,33.40
2023-05-17T16:20:41.699Z,33.80
2023-05-17T16:23:09.614Z,33.50
2023-05-17T16:25:37.643Z,33.10
2023-05-17T16:28:05.608Z,34.10
2023-05-17T16:30:34.968Z,33.30
2023-05-17T16:33:04.085Z,33.00
2023-05-17T16:35:32.857Z,33.40
2023-05-17T16:38:00.799Z,33.70
2023-05-17T16:40:29.311Z,34.00
2023-05-17T16:42:57.363Z,34.40
2023-05-17T16:45:25.320Z,33.70
2023-05-17T16:47:54.486Z,33.60
2023-05-17T16:50:22.366Z,33.10
2023-05-17T16:52:50.377Z,33.00
2023-05-17T16:55:18.259Z,33.30
2023-05-17T16:57:46.311Z,33.10
2023-05-17T17:00:15.351Z,32.90
2023-05-17T17:02:43.348Z,33.50
2023-05-17T17:05:12.704Z,33.90
2023-05-17T17:07:40.698Z,34.10
2023-05-17T17:10:09.355Z,34.60
2023-05-17T17:12:37.337Z,34.50
2023-05-17T17:15:07.831Z,34.80
2023-05-17T17:17:36.095Z,35.10
2023-05-17T17:20:05.452Z,35.50
2023-05-17T17:22:34.677Z,35.90
2023-05-17T17:25:02.585Z,36.40
2023-05-17T17:27:30.581Z,36.70
2023-05-17T17:29:58.439Z,37.10
2023-05-17T17:32:26.691Z,37.40
2023-05-17T17:34:54.650Z,37.60
2023-05-17T17:37:22.529Z,37.80
2023-05-17T17:39:51.885Z,38.20
2023-05-17T17:42:20.754Z,39.00
2023-05-17T17:44:48.802Z,38.50
2023-05-17T17:47:16.729Z,38.60
2023-05-17T17:49:44.703Z,38.80
2023-05-17T17:52:12.798Z,39.10
2023-05-17T17:54:40.718Z,39.00
2023-05-17T17:57:09.916Z,39.40
2023-05-17T17:59:37.780Z,40.20
2023-05-17T18:02:06.033Z,40.40
2023-05-17T18:04:33.996Z,40.40
2023-05-17T18:07:02.006Z,40.70
2023-05-17T18:09:30.047Z,40.80
2023-05-17T18:11:59.467Z,40.80
2023-05-17T18:14:28.732Z,40.90
2023-05-17T18:16:56.670Z,41.10
2023-05-17T18:19:24.796Z,41.20
2023-05-17T18:21:52.772Z,41.30
2023-05-17T18:24:20.842Z,41.20
2023-05-17T18:26:48.753Z,41.40
2023-05-17T18:29:16.686Z,41.50
2023-05-17T18:31:47.624Z,41.60
2023-05-17T18:34:15.717Z,41.70
2023-05-17T18:36:43.650Z,41.90
2023-05-17T18:39:11.643Z,41.90
2023-05-17T18:41:39.550Z,42.20
2023-05-17T18:44:07.458Z,42.10
2023-05-17T18:46:35.391Z,42.20
2023-05-17T18:49:05.445Z,42.10
2023-05-17T18:51:33.364Z,42.00
2023-05-17T18:54:01.206Z,42.20
2023-05-17T18:56:30.401Z,42.30
2023-05-17T18:58:58.406Z,42.30
2023-05-17T19:01:26.815Z,42.20
2023-05-17T19:03:56.320Z,42.30
2023-05-17T19:06:27.554Z,42.40
2023-05-17T19:08:58.055Z,42.80
2023-05-17T19:11:28.515Z,42.60
2023-05-17T19:13:56.526Z,42.80
2023-05-17T19:16:24.403Z,42.90
2023-05-17T19:18:52.447Z,43.00
2023-05-17T19:21:20.478Z,43.10
2023-05-17T19:23:50.021Z,43.10
2023-05-17T19:26:17.940Z,43.50
2023-05-17T19:28:46.457Z,43.50
2023-05-17T19:31:14.436Z,43.60
2023-05-17T19:33:42.354Z,43.80
2023-05-17T19:36:10.542Z,44.00
2023-05-17T19:38:38.362Z,44.10
2023-05-17T19:41:08.931Z,44.30
2023-05-17T19:43:37.006Z,44.40
2023-05-17T19:46:09.210Z,45.30
2023-05-17T19:48:37.530Z,45.90
2023-05-17T19:51:05.577Z,45.30
2023-05-17T19:53:50.845Z,45.40
2023-05-17T19:56:24.822Z,45.40
2023-05-17T19:58:54.091Z,46.30
2023-05-17T20:01:22.389Z,45.70
2023-05-17T20:03:50.981Z,45.80
2023-05-17T20:06:18.872Z,45.60
2023-05-17T20:08:47.554Z,46.10
2023-05-17T20:11:15.462Z,46.10
2023-05-17T20:13:44.668Z,46.20
2023-05-17T20:16:13.553Z,46.30
2023-05-17T20:18:43.084Z,47.70
2023-05-17T20:21:12.685Z,46.80
2023-05-17T20:23:40.949Z,46.70
2023-05-17T20:26:15.892Z,46.90
2023-05-17T20:28:45.810Z,46.80
2023-05-17T20:31:14.476Z,47.10
2023-05-17T20:33:44.078Z,47.20
2023-05-17T20:36:14.430Z,47.20
2023-05-17T20:38:43.221Z,47.10
2023-05-17T20:41:11.448Z,47.60
2023-05-17T20:43:39.695Z,47.40
2023-05-17T20:46:09.816Z,47.70
2023-05-17T20:48:38.921Z,47.80
2023-05-17T20:51:06.856Z,47.80
2023-05-17T20:53:34.668Z,48.00
2023-05-17T20:56:02.841Z,48.10
2023-05-17T20:58:30.995Z,48.20
2023-05-17T21:00:59.841Z,48.40
2023-05-17T21:03:33.238Z,48.50
2023-05-17T21:06:02.120Z,48.70
2023-05-17T21:08:30.054Z,48.90
2023-05-17T21:10:57.883Z,48.90
2023-05-17T21:13:26.417Z,49.00
2023-05-17T21:15:55.841Z,49.20
2023-05-17T21:18:24.342Z,49.30
2023-05-17T21:20:55.090Z,49.30
2023-05-17T21:23:23.020Z,49.50
2023-05-17T21:25:51.145Z,49.50
2023-05-17T21:28:19.141Z,49.50
2023-05-17T21:30:47.068Z,49.70
2023-05-17T21:33:14.885Z,49.60
2023-05-17T21:35:42.728Z,49.90
2023-05-17T21:38:12.101Z,50.00
2023-05-17T21:40:40.497Z,50.00
2023-05-17T21:43:09.730Z,50.20
2023-05-17T21:45:37.756Z,50.10
2023-05-17T21:48:06.313Z,49.20
2023-05-17T21:50:34.202Z,50.40
2023-05-17T21:53:02.145Z,50.50
2023-05-17T21:55:36.824Z,50.50
2023-05-17T21:58:08.945Z,50.60
2023-05-17T22:00:36.824Z,50.70
2023-05-17T22:03:05.043Z,50.80
2023-05-17T22:05:32.954Z,50.90
2023-05-17T22:08:01.165Z,50.80
2023-05-17T22:10:29.191Z,50.80
2023-05-17T22:12:58.653Z,51.00
2023-05-17T22:15:26.482Z,51.30
2023-05-17T22:17:54.433Z,51.40
2023-05-17T22:20:24.051Z,51.40
2023-05-17T22:22:52.165Z,51.60
2023-05-17T22:25:20.067Z,51.70
2023-05-17T22:27:48.165Z,51.90
2023-05-17T22:30:17.689Z,51.90
2023-05-17T22:32:45.632Z,52.10
2023-05-17T22:35:13.752Z,52.20
2023-05-17T22:37:42.615Z,52.10
2023-05-17T22:40:11.733Z,52.30
2023-05-17T22:42:39.597Z,52.20
2023-05-17T22:45:08.099Z,52.50
2023-05-17T22:47:42.288Z,52.80
2023-05-17T22:50:11.880Z,52.70
2023-05-17T22:52:41.202Z,52.90
2023-05-17T22:55:10.197Z,53.00
2023-05-17T22:57:38.343Z,53.10
2023-05-17T23:00:09.166Z,53.20
2023-05-17T23:02:38.481Z,53.40
2023-05-17T23:05:07.138Z,53.40
2023-05-17T23:07:38.174Z,53.40
2023-05-17T23:10:07.164Z,53.60
2023-05-17T23:12:35.998Z,53.50
2023-05-17T23:15:04.760Z,53.60
2023-05-17T23:17:33.286Z,53.70
2023-05-17T23:20:06.942Z,53.90
2023-05-17T23:22:34.905Z,54.10
2023-05-17T23:25:03.448Z,53.90
2023-05-17T23:27:31.449Z,54.00
2023-05-17T23:30:00.979Z,54.20
2023-05-17T23:32:32.318Z,54.20
2023-05-17T23:35:04.782Z,54.40
2023-05-17T23:37:34.673Z,54.50
2023-05-17T23:40:03.349Z,54.60
2023-05-17T23:42:31.716Z,54.60
2023-05-17T23:45:00.617Z,54.60
2023-05-17T23:47:29.050Z,54.70
2023-05-17T23:49:57.473Z,54.70
2023-05-17T23:52:25.339Z,54.80
2023-05-17T23:54:57.333Z,54.90
2023-05-17T23:57:25.329Z,55.10
2023-05-17T23:59:53.230Z,55.10
